sensor_id;sensor_type;location;lat;lon;timestamp;P1;durP1;ratioP1;P2;durP2;ratioP2
22665;SDS011;11499;49.486;11.104;2022-12-26T00:00:29;4.00;;;3.20;;
22665;SDS011;11499;49.486;11.104;2022-12-26T00:02:55;4.10;;;2.60;;
22665;SDS011;11499;49.486;11.104;2022-12-26T00:05:20;4.50;;;3.93;;
22665;SDS011;11499;49.486;11.104;2022-12-26T00:07:45;14.47;;;9.70;;
22665;SDS011;11499;49.486;11.104;2022-12-26T00:10:11;22.23;;;15.47;;
22665;SDS011;11499;49.486;11.104;2022-12-26T00:12:36;26.10;;;16.53;;
22665;SDS011;11499;49.486;11.104;2022-12-26T00:18:10;10.73;;;9.03;;
22665;SDS011;11499;49.486;11.104;2022-12-26T00:20:36;7.87;;;6.13;;
22665;SDS011;11499;49.486;11.104;2022-12-26T00:23:01;8.63;;;5.63;;
22665;SDS011;11499;49.486;11.104;2022-12-26T00:25:27;8.87;;;7.57;;
22665;SDS011;11499;49.486;11.104;2022-12-26T00:27:53;17.00;;;14.07;;
22665;SDS011;11499;49.486;11.104;2022-12-26T00:30:19;6.97;;;6.20;;
22665;SDS011;11499;49.486;11.104;2022-12-26T00:32:44;4.77;;;4.27;;
22665;SDS011;11499;49.486;11.104;2022-12-26T00:35:10;3.43;;;3.13;;
22665;SDS011;11499;49.486;11.104;2022-12-26T00:37:35;5.17;;;3.17;;
22665;SDS011;11499;49.486;11.104;2022-12-26T00:40:01;6.23;;;3.33;;
22665;SDS011;11499;49.486;11.104;2022-12-26T00:45:28;2.80;;;2.50;;
22665;SDS011;11499;49.486;11.104;2022-12-26T00:47:54;3.70;;;2.57;;
22665;SDS011;11499;49.486;11.104;2022-12-26T00:50:19;5.17;;;3.37;;
22665;SDS011;11499;49.486;11.104;2022-12-26T00:52:45;3.10;;;2.80;;
22665;SDS011;11499;49.486;11.104;2022-12-26T00:55:10;5.30;;;2.63;;
22665;SDS011;11499;49.486;11.104;2022-12-26T00:57:36;4.33;;;2.97;;
22665;SDS011;11499;49.486;11.104;2022-12-26T01:00:01;5.53;;;3.70;;
22665;SDS011;11499;49.486;11.104;2022-12-26T01:02:28;4.03;;;2.90;;
22665;SDS011;11499;49.486;11.104;2022-12-26T01:05:02;4.77;;;3.50;;
22665;SDS011;11499;49.486;11.104;2022-12-26T01:07:31;5.57;;;3.67;;
22665;SDS011;11499;49.486;11.104;2022-12-26T01:12:36;11.13;;;6.40;;
22665;SDS011;11499;49.486;11.104;2022-12-26T01:15:03;13.07;;;7.73;;
22665;SDS011;11499;49.486;11.104;2022-12-26T01:17:30;10.10;;;4.77;;
22665;SDS011;11499;49.486;11.104;2022-12-26T01:19:55;5.43;;;3.87;;
22665;SDS011;11499;49.486;11.104;2022-12-26T01:22:21;4.13;;;3.30;;
22665;SDS011;11499;49.486;11.104;2022-12-26T01:24:48;6.23;;;3.23;;
22665;SDS011;11499;49.486;11.104;2022-12-26T01:27:13;5.83;;;3.50;;
22665;SDS011;11499;49.486;11.104;2022-12-26T01:29:39;4.00;;;3.37;;
22665;SDS011;11499;49.486;11.104;2022-12-26T01:32:04;3.70;;;3.40;;
22665;SDS011;11499;49.486;11.104;2022-12-26T01:34:30;3.37;;;2.80;;
22665;SDS011;11499;49.486;11.104;2022-12-26T01:39:57;3.07;;;2.60;;
22665;SDS011;11499;49.486;11.104;2022-12-26T01:42:23;3.37;;;2.20;;
22665;SDS011;11499;49.486;11.104;2022-12-26T01:45:01;2.60;;;2.40;;
22665;SDS011;11499;49.486;11.104;2022-12-26T01:47:51;3.00;;;2.43;;
22665;SDS011;11499;49.486;11.104;2022-12-26T01:50:38;3.43;;;2.40;;
22665;SDS011;11499;49.486;11.104;2022-12-26T01:53:13;2.93;;;2.20;;
22665;SDS011;11499;49.486;11.104;2022-12-26T01:55:46;3.27;;;2.40;;
22665;SDS011;11499;49.486;11.104;2022-12-26T01:58:19;2.97;;;2.30;;
22665;SDS011;11499;49.486;11.104;2022-12-26T02:00:51;2.83;;;2.30;;
22665;SDS011;11499;49.486;11.104;2022-12-26T02:03:16;2.50;;;2.30;;
22665;SDS011;11499;49.486;11.104;2022-12-26T02:08:13;3.70;;;2.07;;
22665;SDS011;11499;49.486;11.104;2022-12-26T02:10:45;5.33;;;2.47;;
22665;SDS011;11499;49.486;11.104;2022-12-26T02:13:16;3.63;;;2.30;;
22665;SDS011;11499;49.486;11.104;2022-12-26T02:15:42;3.57;;;2.33;;
22665;SDS011;11499;49.486;11.104;2022-12-26T02:18:07;2.70;;;2.30;;
22665;SDS011;11499;49.486;11.104;2022-12-26T02:20:38;4.67;;;2.40;;
22665;SDS011;11499;49.486;11.104;2022-12-26T02:28:48;3.10;;;2.20;;
22665;SDS011;11499;49.486;11.104;2022-12-26T02:31:23;2.30;;;2.10;;
22665;SDS011;11499;49.486;11.104;2022-12-26T02:42:23;2.60;;;2.40;;
22665;SDS011;11499;49.486;11.104;2022-12-26T02:51:10;3.77;;;2.63;;
22665;SDS011;11499;49.486;11.104;2022-12-26T02:57:07;5.03;;;2.70;;
22665;SDS011;11499;49.486;11.104;2022-12-26T02:59:57;3.17;;;2.30;;
22665;SDS011;11499;49.486;11.104;2022-12-26T03:04:21;3.53;;;2.60;;
22665;SDS011;11499;49.486;11.104;2022-12-26T03:07:12;3.33;;;2.73;;
22665;SDS011;11499;49.486;11.104;2022-12-26T03:10:02;3.03;;;2.77;;
22665;SDS011;11499;49.486;11.104;2022-12-26T03:12:56;2.70;;;2.50;;
22665;SDS011;11499;49.486;11.104;2022-12-26T03:15:39;3.33;;;2.43;;
22665;SDS011;11499;49.486;11.104;2022-12-26T03:18:29;3.30;;;2.60;;
22665;SDS011;11499;49.486;11.104;2022-12-26T03:20:58;2.90;;;2.40;;
22665;SDS011;11499;49.486;11.104;2022-12-26T03:23:24;2.80;;;2.50;;
22665;SDS011;11499;49.486;11.104;2022-12-26T03:25:56;3.10;;;2.53;;
22665;SDS011;11499;49.486;11.104;2022-12-26T03:31:25;2.67;;;2.40;;
22665;SDS011;11499;49.486;11.104;2022-12-26T03:33:50;3.97;;;2.63;;
22665;SDS011;11499;49.486;11.104;2022-12-26T03:39:53;3.97;;;2.60;;
22665;SDS011;11499;49.486;11.104;2022-12-26T03:42:40;5.27;;;2.60;;
22665;SDS011;11499;49.486;11.104;2022-12-26T03:48:50;3.00;;;2.30;;
22665;SDS011;11499;49.486;11.104;2022-12-26T03:52:13;2.70;;;2.40;;
22665;SDS011;11499;49.486;11.104;2022-12-26T03:55:14;2.80;;;2.60;;
22665;SDS011;11499;49.486;11.104;2022-12-26T03:59:46;2.90;;;2.70;;
22665;SDS011;11499;49.486;11.104;2022-12-26T04:02:31;2.47;;;2.20;;
22665;SDS011;11499;49.486;11.104;2022-12-26T04:05:18;3.30;;;2.83;;
22665;SDS011;11499;49.486;11.104;2022-12-26T04:08:06;2.93;;;2.47;;
22665;SDS011;11499;49.486;11.104;2022-12-26T04:11:00;3.23;;;2.50;;
22665;SDS011;11499;49.486;11.104;2022-12-26T04:14:06;2.67;;;2.40;;
22665;SDS011;11499;49.486;11.104;2022-12-26T04:17:13;3.30;;;2.50;;
22665;SDS011;11499;49.486;11.104;2022-12-26T04:20:23;3.10;;;2.63;;
22665;SDS011;11499;49.486;11.104;2022-12-26T04:23:08;3.37;;;2.60;;
22665;SDS011;11499;49.486;11.104;2022-12-26T04:27:11;3.57;;;2.83;;
22665;SDS011;11499;49.486;11.104;2022-12-26T04:29:58;3.10;;;2.40;;
22665;SDS011;11499;49.486;11.104;2022-12-26T04:32:43;4.03;;;2.10;;
22665;SDS011;11499;49.486;11.104;2022-12-26T04:35:30;4.37;;;2.57;;
22665;SDS011;11499;49.486;11.104;2022-12-26T04:38:21;3.73;;;2.23;;
22665;SDS011;11499;49.486;11.104;2022-12-26T04:41:09;2.97;;;2.50;;
22665;SDS011;11499;49.486;11.104;2022-12-26T04:43:55;2.63;;;2.40;;
22665;SDS011;11499;49.486;11.104;2022-12-26T04:46:33;3.37;;;2.30;;
22665;SDS011;11499;49.486;11.104;2022-12-26T04:49:02;2.30;;;2.10;;
22665;SDS011;11499;49.486;11.104;2022-12-26T04:54:27;2.40;;;2.20;;
22665;SDS011;11499;49.486;11.104;2022-12-26T04:56:53;5.37;;;2.53;;
22665;SDS011;11499;49.486;11.104;2022-12-26T04:59:18;2.57;;;2.20;;
22665;SDS011;11499;49.486;11.104;2022-12-26T05:01:45;3.20;;;2.27;;
22665;SDS011;11499;49.486;11.104;2022-12-26T05:04:29;3.00;;;2.60;;
22665;SDS011;11499;49.486;11.104;2022-12-26T05:07:18;2.80;;;2.30;;
22665;SDS011;11499;49.486;11.104;2022-12-26T05:10:24;2.83;;;2.40;;
22665;SDS011;11499;49.486;11.104;2022-12-26T05:12:51;3.23;;;2.33;;
22665;SDS011;11499;49.486;11.104;2022-12-26T05:15:17;3.53;;;2.63;;
22665;SDS011;11499;49.486;11.104;2022-12-26T05:20:21;3.17;;;2.17;;
22665;SDS011;11499;49.486;11.104;2022-12-26T05:23:09;2.50;;;2.23;;
22665;SDS011;11499;49.486;11.104;2022-12-26T05:25:58;3.30;;;2.30;;
22665;SDS011;11499;49.486;11.104;2022-12-26T05:28:43;2.63;;;2.43;;
22665;SDS011;11499;49.486;11.104;2022-12-26T05:31:09;6.77;;;3.53;;
22665;SDS011;11499;49.486;11.104;2022-12-26T05:33:37;13.53;;;6.17;;
22665;SDS011;11499;49.486;11.104;2022-12-26T05:36:22;5.87;;;3.37;;
22665;SDS011;11499;49.486;11.104;2022-12-26T05:38:49;11.27;;;5.40;;
22665;SDS011;11499;49.486;11.104;2022-12-26T05:41:15;10.53;;;6.13;;
22665;SDS011;11499;49.486;11.104;2022-12-26T05:43:41;6.33;;;4.30;;
22665;SDS011;11499;49.486;11.104;2022-12-26T05:48:28;9.30;;;5.13;;
22665;SDS011;11499;49.486;11.104;2022-12-26T05:51:00;5.33;;;3.40;;
22665;SDS011;11499;49.486;11.104;2022-12-26T05:53:27;6.00;;;3.70;;
22665;SDS011;11499;49.486;11.104;2022-12-26T05:55:53;6.90;;;3.93;;
22665;SDS011;11499;49.486;11.104;2022-12-26T05:58:19;6.77;;;4.83;;
22665;SDS011;11499;49.486;11.104;2022-12-26T06:00:46;3.97;;;2.57;;
22665;SDS011;11499;49.486;11.104;2022-12-26T06:03:12;4.43;;;2.93;;
22665;SDS011;11499;49.486;11.104;2022-12-26T06:05:37;2.73;;;2.13;;
22665;SDS011;11499;49.486;11.104;2022-12-26T06:08:03;2.33;;;1.93;;
22665;SDS011;11499;49.486;11.104;2022-12-26T06:10:28;2.37;;;1.90;;
22665;SDS011;11499;49.486;11.104;2022-12-26T06:12:54;3.80;;;2.10;;
22665;SDS011;11499;49.486;11.104;2022-12-26T06:15:20;5.10;;;2.40;;
22665;SDS011;11499;49.486;11.104;2022-12-26T06:20:11;2.57;;;2.10;;
22665;SDS011;11499;49.486;11.104;2022-12-26T06:22:36;4.17;;;2.30;;
22665;SDS011;11499;49.486;11.104;2022-12-26T06:25:02;2.00;;;1.80;;
22665;SDS011;11499;49.486;11.104;2022-12-26T06:27:28;2.30;;;2.00;;
22665;SDS011;11499;49.486;11.104;2022-12-26T06:29:53;3.80;;;2.30;;
22665;SDS011;11499;49.486;11.104;2022-12-26T06:32:18;3.03;;;2.40;;
22665;SDS011;11499;49.486;11.104;2022-12-26T06:34:44;2.90;;;2.30;;
22665;SDS011;11499;49.486;11.104;2022-12-26T06:37:11;3.30;;;2.17;;
22665;SDS011;11499;49.486;11.104;2022-12-26T06:39:36;3.00;;;2.07;;
22665;SDS011;11499;49.486;11.104;2022-12-26T06:42:02;2.17;;;1.97;;
22665;SDS011;11499;49.486;11.104;2022-12-26T06:44:29;2.47;;;2.07;;
22665;SDS011;11499;49.486;11.104;2022-12-26T06:47:54;2.50;;;2.00;;
22665;SDS011;11499;49.486;11.104;2022-12-26T06:50:19;4.07;;;2.40;;
22665;SDS011;11499;49.486;11.104;2022-12-26T06:52:47;4.73;;;3.07;;
22665;SDS011;11499;49.486;11.104;2022-12-26T06:55:12;2.63;;;2.20;;
22665;SDS011;11499;49.486;11.104;2022-12-26T06:57:38;2.63;;;2.20;;
22665;SDS011;11499;49.486;11.104;2022-12-26T07:00:03;2.37;;;1.90;;
22665;SDS011;11499;49.486;11.104;2022-12-26T07:02:29;2.87;;;2.13;;
22665;SDS011;11499;49.486;11.104;2022-12-26T07:04:55;2.13;;;1.93;;
22665;SDS011;11499;49.486;11.104;2022-12-26T07:07:20;2.63;;;2.30;;
22665;SDS011;11499;49.486;11.104;2022-12-26T07:09:46;2.27;;;1.93;;
22665;SDS011;11499;49.486;11.104;2022-12-26T07:15:13;2.40;;;1.90;;
22665;SDS011;11499;49.486;11.104;2022-12-26T07:17:39;2.77;;;2.20;;
22665;SDS011;11499;49.486;11.104;2022-12-26T07:20:06;4.93;;;2.60;;
22665;SDS011;11499;49.486;11.104;2022-12-26T07:22:32;3.03;;;2.10;;
22665;SDS011;11499;49.486;11.104;2022-12-26T07:24:57;2.53;;;2.10;;
22665;SDS011;11499;49.486;11.104;2022-12-26T07:27:23;3.40;;;2.37;;
22665;SDS011;11499;49.486;11.104;2022-12-26T07:29:48;2.50;;;2.00;;
22665;SDS011;11499;49.486;11.104;2022-12-26T07:32:14;3.33;;;2.37;;
22665;SDS011;11499;49.486;11.104;2022-12-26T07:34:40;2.30;;;2.00;;
22665;SDS011;11499;49.486;11.104;2022-12-26T07:37:06;2.37;;;1.93;;
22665;SDS011;11499;49.486;11.104;2022-12-26T07:42:33;2.40;;;2.13;;
22665;SDS011;11499;49.486;11.104;2022-12-26T07:44:59;2.73;;;1.90;;
22665;SDS011;11499;49.486;11.104;2022-12-26T07:47:24;2.40;;;2.03;;
22665;SDS011;11499;49.486;11.104;2022-12-26T07:49:50;4.00;;;2.10;;
22665;SDS011;11499;49.486;11.104;2022-12-26T07:52:15;2.10;;;1.90;;
22665;SDS011;11499;49.486;11.104;2022-12-26T07:54:41;2.23;;;1.93;;
22665;SDS011;11499;49.486;11.104;2022-12-26T07:57:06;2.57;;;2.13;;
22665;SDS011;11499;49.486;11.104;2022-12-26T07:59:32;3.00;;;2.20;;
22665;SDS011;11499;49.486;11.104;2022-12-26T08:01:57;3.33;;;2.10;;
22665;SDS011;11499;49.486;11.104;2022-12-26T08:04:23;3.23;;;1.90;;
22665;SDS011;11499;49.486;11.104;2022-12-26T08:09:28;2.37;;;2.00;;
22665;SDS011;11499;49.486;11.104;2022-12-26T08:11:53;4.53;;;3.77;;
22665;SDS011;11499;49.486;11.104;2022-12-26T08:14:19;2.60;;;2.40;;
22665;SDS011;11499;49.486;11.104;2022-12-26T08:16:44;3.00;;;2.30;;
22665;SDS011;11499;49.486;11.104;2022-12-26T08:19:10;2.73;;;2.20;;
22665;SDS011;11499;49.486;11.104;2022-12-26T08:21:36;2.57;;;2.10;;
22665;SDS011;11499;49.486;11.104;2022-12-26T08:24:02;3.30;;;2.47;;
22665;SDS011;11499;49.486;11.104;2022-12-26T08:26:27;3.20;;;2.50;;
22665;SDS011;11499;49.486;11.104;2022-12-26T08:28:53;3.80;;;2.43;;
22665;SDS011;11499;49.486;11.104;2022-12-26T08:31:19;2.60;;;2.33;;
22665;SDS011;11499;49.486;11.104;2022-12-26T08:33:45;2.73;;;2.53;;
22665;SDS011;11499;49.486;11.104;2022-12-26T08:39:56;2.60;;;2.40;;
22665;SDS011;11499;49.486;11.104;2022-12-26T08:42:22;2.53;;;2.30;;
22665;SDS011;11499;49.486;11.104;2022-12-26T08:44:47;3.30;;;2.60;;
22665;SDS011;11499;49.486;11.104;2022-12-26T08:47:13;3.93;;;2.60;;
22665;SDS011;11499;49.486;11.104;2022-12-26T08:49:39;5.17;;;2.87;;
22665;SDS011;11499;49.486;11.104;2022-12-26T08:52:05;3.67;;;2.73;;
22665;SDS011;11499;49.486;11.104;2022-12-26T08:54:31;2.93;;;2.63;;
22665;SDS011;11499;49.486;11.104;2022-12-26T08:56:56;3.57;;;2.50;;
22665;SDS011;11499;49.486;11.104;2022-12-26T08:59:22;3.90;;;3.10;;
22665;SDS011;11499;49.486;11.104;2022-12-26T09:01:47;4.80;;;2.77;;
22665;SDS011;11499;49.486;11.104;2022-12-26T09:05:59;2.77;;;2.40;;
22665;SDS011;11499;49.486;11.104;2022-12-26T09:08:27;5.90;;;3.60;;
22665;SDS011;11499;49.486;11.104;2022-12-26T09:10:54;3.60;;;2.53;;
22665;SDS011;11499;49.486;11.104;2022-12-26T09:13:21;2.97;;;2.37;;
22665;SDS011;11499;49.486;11.104;2022-12-26T09:15:46;2.20;;;2.00;;
22665;SDS011;11499;49.486;11.104;2022-12-26T09:18:12;2.77;;;2.30;;
22665;SDS011;11499;49.486;11.104;2022-12-26T09:20:37;2.53;;;2.17;;
22665;SDS011;11499;49.486;11.104;2022-12-26T09:23:03;3.97;;;2.20;;
22665;SDS011;11499;49.486;11.104;2022-12-26T09:25:28;2.17;;;1.97;;
22665;SDS011;11499;49.486;11.104;2022-12-26T09:27:54;2.90;;;2.37;;
22665;SDS011;11499;49.486;11.104;2022-12-26T09:32:42;3.97;;;2.17;;
22665;SDS011;11499;49.486;11.104;2022-12-26T09:35:08;2.57;;;2.10;;
22665;SDS011;11499;49.486;11.104;2022-12-26T09:37:33;3.10;;;2.30;;
22665;SDS011;11499;49.486;11.104;2022-12-26T09:39:59;4.43;;;2.37;;
22665;SDS011;11499;49.486;11.104;2022-12-26T09:42:31;3.20;;;2.27;;
22665;SDS011;11499;49.486;11.104;2022-12-26T09:45:12;2.60;;;2.40;;
22665;SDS011;11499;49.486;11.104;2022-12-26T09:50:28;2.50;;;2.30;;
22665;SDS011;11499;49.486;11.104;2022-12-26T09:53:04;3.80;;;2.67;;
22665;SDS011;11499;49.486;11.104;2022-12-26T09:57:50;2.60;;;2.40;;
22665;SDS011;11499;49.486;11.104;2022-12-26T10:00:18;2.77;;;2.47;;
22665;SDS011;11499;49.486;11.104;2022-12-26T10:02:56;3.70;;;2.80;;
22665;SDS011;11499;49.486;11.104;2022-12-26T10:05:24;2.90;;;2.57;;
22665;SDS011;11499;49.486;11.104;2022-12-26T10:08:00;3.60;;;2.40;;
22665;SDS011;11499;49.486;11.104;2022-12-26T10:10:53;3.03;;;2.63;;
22665;SDS011;11499;49.486;11.104;2022-12-26T10:13:31;2.60;;;2.40;;
22665;SDS011;11499;49.486;11.104;2022-12-26T10:16:20;3.67;;;2.50;;
22665;SDS011;11499;49.486;11.104;2022-12-26T10:19:10;2.47;;;2.27;;
22665;SDS011;11499;49.486;11.104;2022-12-26T10:24:21;3.33;;;2.53;;
22665;SDS011;11499;49.486;11.104;2022-12-26T10:26:49;2.83;;;2.53;;
22665;SDS011;11499;49.486;11.104;2022-12-26T10:29:27;2.87;;;2.40;;
22665;SDS011;11499;49.486;11.104;2022-12-26T10:31:58;4.00;;;3.13;;
22665;SDS011;11499;49.486;11.104;2022-12-26T10:34:42;3.50;;;2.70;;
22665;SDS011;11499;49.486;11.104;2022-12-26T10:37:15;2.97;;;2.77;;
22665;SDS011;11499;49.486;11.104;2022-12-26T10:39:51;3.47;;;2.80;;
22665;SDS011;11499;49.486;11.104;2022-12-26T10:42:38;3.53;;;3.13;;
22665;SDS011;11499;49.486;11.104;2022-12-26T10:47:54;3.33;;;2.80;;
22665;SDS011;11499;49.486;11.104;2022-12-26T10:52:22;3.33;;;2.90;;
22665;SDS011;11499;49.486;11.104;2022-12-26T10:54:54;3.10;;;2.80;;
22665;SDS011;11499;49.486;11.104;2022-12-26T10:57:22;3.43;;;3.13;;
22665;SDS011;11499;49.486;11.104;2022-12-26T10:59:50;5.37;;;3.47;;
22665;SDS011;11499;49.486;11.104;2022-12-26T11:05:08;4.53;;;3.53;;
22665;SDS011;11499;49.486;11.104;2022-12-26T11:07:36;4.07;;;3.47;;
22665;SDS011;11499;49.486;11.104;2022-12-26T11:10:21;4.47;;;3.30;;
22665;SDS011;11499;49.486;11.104;2022-12-26T11:12:50;7.83;;;3.90;;
22665;SDS011;11499;49.486;11.104;2022-12-26T11:20:20;4.17;;;3.10;;
22665;SDS011;11499;49.486;11.104;2022-12-26T11:22:51;3.87;;;3.13;;
22665;SDS011;11499;49.486;11.104;2022-12-26T11:25:21;4.53;;;3.30;;
22665;SDS011;11499;49.486;11.104;2022-12-26T11:27:52;3.13;;;2.77;;
22665;SDS011;11499;49.486;11.104;2022-12-26T11:30:21;2.97;;;2.70;;
22665;SDS011;11499;49.486;11.104;2022-12-26T11:32:49;2.97;;;2.67;;
22665;SDS011;11499;49.486;11.104;2022-12-26T11:35:36;3.77;;;2.57;;
22665;SDS011;11499;49.486;11.104;2022-12-26T11:38:12;3.27;;;2.80;;
22665;SDS011;11499;49.486;11.104;2022-12-26T11:40:58;3.07;;;2.50;;
22665;SDS011;11499;49.486;11.104;2022-12-26T11:43:43;2.67;;;2.40;;
22665;SDS011;11499;49.486;11.104;2022-12-26T11:47:46;3.67;;;2.60;;
22665;SDS011;11499;49.486;11.104;2022-12-26T11:50:12;4.27;;;2.60;;
22665;SDS011;11499;49.486;11.104;2022-12-26T11:55:29;3.13;;;2.20;;
22665;SDS011;11499;49.486;11.104;2022-12-26T12:00:33;2.60;;;2.27;;
22665;SDS011;11499;49.486;11.104;2022-12-26T12:03:01;3.37;;;2.77;;
22665;SDS011;11499;49.486;11.104;2022-12-26T12:13:30;2.10;;;1.90;;
22665;SDS011;11499;49.486;11.104;2022-12-26T12:19:03;1.67;;;1.57;;
22665;SDS011;11499;49.486;11.104;2022-12-26T12:21:44;2.20;;;1.77;;
22665;SDS011;11499;49.486;11.104;2022-12-26T12:24:35;3.60;;;2.00;;
22665;SDS011;11499;49.486;11.104;2022-12-26T12:27:15;4.63;;;2.10;;
22665;SDS011;11499;49.486;11.104;2022-12-26T12:40:01;2.50;;;1.83;;
22665;SDS011;11499;49.486;11.104;2022-12-26T12:42:35;1.70;;;1.60;;
22665;SDS011;11499;49.486;11.104;2022-12-26T12:45:23;2.63;;;1.60;;
22665;SDS011;11499;49.486;11.104;2022-12-26T12:53:46;1.60;;;1.50;;
22665;SDS011;11499;49.486;11.104;2022-12-26T12:59:22;2.13;;;1.40;;
22665;SDS011;11499;49.486;11.104;2022-12-26T13:05:01;2.03;;;1.40;;
22665;SDS011;11499;49.486;11.104;2022-12-26T13:07:51;1.53;;;1.43;;
22665;SDS011;11499;49.486;11.104;2022-12-26T13:10:31;3.17;;;1.40;;
22665;SDS011;11499;49.486;11.104;2022-12-26T13:12:59;2.73;;;1.30;;
22665;SDS011;11499;49.486;11.104;2022-12-26T13:15:42;1.70;;;1.40;;
22665;SDS011;11499;49.486;11.104;2022-12-26T13:18:21;1.57;;;1.43;;
22665;SDS011;11499;49.486;11.104;2022-12-26T13:20:58;2.50;;;1.60;;
22665;SDS011;11499;49.486;11.104;2022-12-26T13:23:31;1.50;;;1.23;;
22665;SDS011;11499;49.486;11.104;2022-12-26T13:26:36;1.43;;;1.30;;
22665;SDS011;11499;49.486;11.104;2022-12-26T13:31:39;1.80;;;1.10;;
22665;SDS011;11499;49.486;11.104;2022-12-26T13:34:10;2.00;;;1.30;;
22665;SDS011;11499;49.486;11.104;2022-12-26T13:36:41;2.00;;;1.30;;
22665;SDS011;11499;49.486;11.104;2022-12-26T13:41:36;1.60;;;1.40;;
22665;SDS011;11499;49.486;11.104;2022-12-26T13:49:33;3.07;;;1.40;;
22665;SDS011;11499;49.486;11.104;2022-12-26T14:00:15;1.73;;;1.17;;
22665;SDS011;11499;49.486;11.104;2022-12-26T14:12:19;1.50;;;1.37;;
22665;SDS011;11499;49.486;11.104;2022-12-26T14:20:14;2.27;;;1.50;;
22665;SDS011;11499;49.486;11.104;2022-12-26T14:25:29;1.17;;;1.07;;
22665;SDS011;11499;49.486;11.104;2022-12-26T14:33:46;1.53;;;1.33;;
22665;SDS011;11499;49.486;11.104;2022-12-26T14:36:24;1.63;;;1.30;;
22665;SDS011;11499;49.486;11.104;2022-12-26T14:41:25;2.20;;;1.50;;
22665;SDS011;11499;49.486;11.104;2022-12-26T14:44:11;1.60;;;1.40;;
22665;SDS011;11499;49.486;11.104;2022-12-26T14:52:20;2.40;;;1.97;;
22665;SDS011;11499;49.486;11.104;2022-12-26T14:54:52;2.03;;;1.70;;
22665;SDS011;11499;49.486;11.104;2022-12-26T14:57:34;1.50;;;1.30;;
22665;SDS011;11499;49.486;11.104;2022-12-26T15:00:24;1.73;;;1.40;;
22665;SDS011;11499;49.486;11.104;2022-12-26T15:05:26;2.70;;;1.40;;
22665;SDS011;11499;49.486;11.104;2022-12-26T15:18:59;1.93;;;1.43;;
22665;SDS011;11499;49.486;11.104;2022-12-26T15:32:29;2.70;;;1.70;;
22665;SDS011;11499;49.486;11.104;2022-12-26T15:35:10;2.57;;;1.90;;
22665;SDS011;11499;49.486;11.104;2022-12-26T15:40:18;2.03;;;1.43;;
22665;SDS011;11499;49.486;11.104;2022-12-26T15:46:06;2.70;;;1.77;;
22665;SDS011;11499;49.486;11.104;2022-12-26T16:04:45;2.23;;;1.73;;
22665;SDS011;11499;49.486;11.104;2022-12-26T16:07:20;1.70;;;1.60;;
22665;SDS011;11499;49.486;11.104;2022-12-26T16:09:49;2.63;;;1.80;;
22665;SDS011;11499;49.486;11.104;2022-12-26T16:17:32;2.73;;;2.13;;
22665;SDS011;11499;49.486;11.104;2022-12-26T16:19:58;2.60;;;1.80;;
22665;SDS011;11499;49.486;11.104;2022-12-26T16:25:11;2.67;;;2.07;;
22665;SDS011;11499;49.486;11.104;2022-12-26T16:27:48;2.40;;;2.00;;
22665;SDS011;11499;49.486;11.104;2022-12-26T16:32:47;2.13;;;1.67;;
22665;SDS011;11499;49.486;11.104;2022-12-26T16:35:16;1.97;;;1.77;;
22665;SDS011;11499;49.486;11.104;2022-12-26T16:37:44;2.20;;;2.00;;
22665;SDS011;11499;49.486;11.104;2022-12-26T16:42:43;2.10;;;1.83;;
22665;SDS011;11499;49.486;11.104;2022-12-26T16:45:18;3.10;;;2.07;;
22665;SDS011;11499;49.486;11.104;2022-12-26T16:47:45;4.17;;;2.90;;
22665;SDS011;11499;49.486;11.104;2022-12-26T16:50:16;2.87;;;2.60;;
22665;SDS011;11499;49.486;11.104;2022-12-26T16:52:44;2.27;;;2.07;;
22665;SDS011;11499;49.486;11.104;2022-12-26T16:55:32;3.07;;;2.20;;
22665;SDS011;11499;49.486;11.104;2022-12-26T17:00:03;2.27;;;1.70;;
22665;SDS011;11499;49.486;11.104;2022-12-26T17:02:30;2.60;;;2.20;;
22665;SDS011;11499;49.486;11.104;2022-12-26T17:04:59;2.20;;;2.00;;
22665;SDS011;11499;49.486;11.104;2022-12-26T17:07:42;2.93;;;2.63;;
22665;SDS011;11499;49.486;11.104;2022-12-26T17:10:16;5.07;;;2.60;;
22665;SDS011;11499;49.486;11.104;2022-12-26T17:12:48;4.03;;;2.43;;
22665;SDS011;11499;49.486;11.104;2022-12-26T17:15:18;3.00;;;2.70;;
22665;SDS011;11499;49.486;11.104;2022-12-26T17:17:46;2.67;;;2.13;;
22665;SDS011;11499;49.486;11.104;2022-12-26T17:25:29;3.40;;;2.20;;
22665;SDS011;11499;49.486;11.104;2022-12-26T17:30:31;2.27;;;2.00;;
22665;SDS011;11499;49.486;11.104;2022-12-26T17:33:01;2.23;;;2.00;;
22665;SDS011;11499;49.486;11.104;2022-12-26T17:35:29;2.63;;;1.90;;
22665;SDS011;11499;49.486;11.104;2022-12-26T17:37:59;3.33;;;1.90;;
22665;SDS011;11499;49.486;11.104;2022-12-26T17:40:27;2.63;;;2.00;;
22665;SDS011;11499;49.486;11.104;2022-12-26T17:45:30;2.30;;;2.07;;
22665;SDS011;11499;49.486;11.104;2022-12-26T17:47:55;2.90;;;2.03;;
22665;SDS011;11499;49.486;11.104;2022-12-26T17:51:56;2.33;;;2.13;;
22665;SDS011;11499;49.486;11.104;2022-12-26T17:54:21;4.00;;;1.87;;
22665;SDS011;11499;49.486;11.104;2022-12-26T17:56:47;3.63;;;1.80;;
22665;SDS011;11499;49.486;11.104;2022-12-26T17:59:12;3.37;;;2.03;;
22665;SDS011;11499;49.486;11.104;2022-12-26T18:01:38;3.37;;;2.17;;
22665;SDS011;11499;49.486;11.104;2022-12-26T18:04:04;2.57;;;1.90;;
22665;SDS011;11499;49.486;11.104;2022-12-26T18:06:29;2.00;;;1.80;;
22665;SDS011;11499;49.486;11.104;2022-12-26T18:08:55;1.87;;;1.67;;
22665;SDS011;11499;49.486;11.104;2022-12-26T18:11:20;1.93;;;1.77;;
22665;SDS011;11499;49.486;11.104;2022-12-26T18:13:46;2.27;;;1.73;;
22665;SDS011;11499;49.486;11.104;2022-12-26T18:18:45;1.70;;;1.60;;
22665;SDS011;11499;49.486;11.104;2022-12-26T18:21:12;2.00;;;1.80;;
22665;SDS011;11499;49.486;11.104;2022-12-26T18:23:38;2.20;;;1.80;;
22665;SDS011;11499;49.486;11.104;2022-12-26T18:26:06;1.83;;;1.63;;
22665;SDS011;11499;49.486;11.104;2022-12-26T18:28:51;3.63;;;1.70;;
22665;SDS011;11499;49.486;11.104;2022-12-26T18:31:16;1.60;;;1.50;;
22665;SDS011;11499;49.486;11.104;2022-12-26T18:33:42;1.87;;;1.40;;
22665;SDS011;11499;49.486;11.104;2022-12-26T18:36:11;2.50;;;1.60;;
22665;SDS011;11499;49.486;11.104;2022-12-26T18:38:37;2.23;;;1.80;;
22665;SDS011;11499;49.486;11.104;2022-12-26T18:41:03;1.83;;;1.67;;
22665;SDS011;11499;49.486;11.104;2022-12-26T18:46:20;3.07;;;1.90;;
22665;SDS011;11499;49.486;11.104;2022-12-26T18:48:47;1.60;;;1.50;;
22665;SDS011;11499;49.486;11.104;2022-12-26T18:51:14;2.10;;;1.83;;
22665;SDS011;11499;49.486;11.104;2022-12-26T18:53:40;1.93;;;1.63;;
22665;SDS011;11499;49.486;11.104;2022-12-26T18:56:06;3.20;;;1.80;;
22665;SDS011;11499;49.486;11.104;2022-12-26T18:58:35;1.90;;;1.70;;
22665;SDS011;11499;49.486;11.104;2022-12-26T19:01:01;2.53;;;1.70;;
22665;SDS011;11499;49.486;11.104;2022-12-26T19:03:27;1.90;;;1.70;;
22665;SDS011;11499;49.486;11.104;2022-12-26T19:05:53;2.73;;;1.57;;
22665;SDS011;11499;49.486;11.104;2022-12-26T19:08:18;1.90;;;1.30;;
22665;SDS011;11499;49.486;11.104;2022-12-26T19:12:30;1.23;;;0.70;;
22665;SDS011;11499;49.486;11.104;2022-12-26T19:14:55;1.97;;;0.60;;
22665;SDS011;11499;49.486;11.104;2022-12-26T19:17:21;1.00;;;0.90;;
22665;SDS011;11499;49.486;11.104;2022-12-26T19:19:46;1.27;;;1.00;;
22665;SDS011;11499;49.486;11.104;2022-12-26T19:22:12;1.00;;;0.90;;
22665;SDS011;11499;49.486;11.104;2022-12-26T19:24:37;1.87;;;0.90;;
22665;SDS011;11499;49.486;11.104;2022-12-26T19:27:03;2.17;;;1.00;;
22665;SDS011;11499;49.486;11.104;2022-12-26T19:29:28;1.60;;;1.00;;